createdAt,value
2022-11-17T00:00:43.218Z,98687.63
2022-11-17T00:03:15.737Z,98680.59
2022-11-17T00:05:44.850Z,98674.88
2022-11-17T00:08:12.532Z,98673.06
2022-11-17T00:10:42.282Z,98658.75
2022-11-17T00:13:29.983Z,98659.00
2022-11-17T00:15:57.207Z,98648.06
2022-11-17T00:18:43.299Z,98627.03
2022-11-17T00:21:19.852Z,98633.06
2022-11-17T00:23:49.724Z,98616.44
2022-11-17T00:26:27.511Z,98610.22
2022-11-17T00:29:06.420Z,98606.13
2022-11-17T00:31:53.181Z,98597.88
2022-11-17T00:34:23.622Z,98579.44
2022-11-17T00:36:55.566Z,98580.09
2022-11-17T00:39:25.561Z,98571.03
2022-11-17T00:41:52.731Z,98551.41
2022-11-17T00:44:20.000Z,98562.94
2022-11-17T00:46:47.279Z,98548.63
2022-11-17T00:49:15.017Z,98521.72
2022-11-17T00:51:43.005Z,98526.22
2022-11-17T00:54:13.411Z,98514.09
2022-11-17T00:56:41.093Z,98508.78
2022-11-17T00:59:08.733Z,98514.69
2022-11-17T01:01:37.765Z,98515.25
2022-11-17T01:04:06.889Z,98510.13
2022-11-17T01:06:48.143Z,98511.38
2022-11-17T01:09:23.475Z,98490.28
2022-11-17T01:11:53.729Z,98488.69
2022-11-17T01:14:26.552Z,98520.06
2022-11-17T01:16:55.447Z,98502.03
2022-11-17T01:19:26.877Z,98520.03
2022-11-17T01:21:54.060Z,98524.56
2022-11-17T01:24:21.225Z,98524.34
2022-11-17T01:26:50.554Z,98510.38
2022-11-17T01:29:18.201Z,98487.97
2022-11-17T01:31:52.521Z,98502.16
2022-11-17T01:34:20.341Z,98494.31
2022-11-17T01:37:06.340Z,98488.69
2022-11-17T01:39:33.515Z,98471.00
2022-11-17T01:42:21.880Z,98476.44
2022-11-17T01:45:20.641Z,98477.41
2022-11-17T01:47:58.071Z,98470.66
2022-11-17T01:50:34.285Z,98461.88
2022-11-17T01:53:10.777Z,98457.06
2022-11-17T01:55:59.797Z,98451.97
2022-11-17T01:58:39.443Z,98458.31
2022-11-17T02:01:07.094Z,98455.56
2022-11-17T02:03:37.169Z,98465.56
2022-11-17T02:06:35.370Z,98449.06
2022-11-17T02:09:04.424Z,98440.84
2022-11-17T02:11:36.123Z,98457.19
2022-11-17T02:14:05.901Z,98444.41
2022-11-17T02:16:33.148Z,98442.50
2022-11-17T02:19:00.416Z,98440.16
2022-11-17T02:22:26.578Z,98429.16
2022-11-17T02:24:59.298Z,98421.88
2022-11-17T02:27:58.641Z,98437.16
2022-11-17T02:30:41.698Z,98425.19
2022-11-17T02:33:23.965Z,98415.00
2022-11-17T02:36:12.425Z,98422.88
2022-11-17T02:39:16.627Z,98406.06
2022-11-17T02:42:13.989Z,98396.44
2022-11-17T02:45:05.541Z,98406.50
2022-11-17T02:47:39.329Z,98402.75
2022-11-17T02:50:11.150Z,98413.66
2022-11-17T02:52:38.652Z,98394.63
2022-11-17T02:55:11.342Z,98404.25
2022-11-17T02:57:41.390Z,98397.38
2022-11-17T03:00:20.784Z,98390.63
2022-11-17T03:03:44.759Z,98394.63
2022-11-17T03:06:51.718Z,98371.22
2022-11-17T03:09:54.533Z,98354.44
2022-11-17T03:12:39.235Z,98347.69
2022-11-17T03:15:23.120Z,98336.25
2022-11-17T03:18:32.280Z,98322.59
2022-11-17T03:21:22.252Z,98316.81
2022-11-17T03:24:04.233Z,98335.81
2022-11-17T03:26:42.623Z,98323.72
2022-11-17T03:29:18.161Z,98320.81
2022-11-17T03:31:49.234Z,98313.53
2022-11-17T03:34:24.321Z,98311.63
2022-11-17T03:37:04.856Z,98324.69
2022-11-17T03:39:41.867Z,98322.22
2022-11-17T03:42:21.141Z,98314.94
2022-11-17T03:44:56.861Z,98305.84
2022-11-17T03:47:29.403Z,98310.94
2022-11-17T03:50:36.270Z,98300.09
2022-11-17T03:53:06.088Z,98302.84
2022-11-17T03:56:09.299Z,98302.28
2022-11-17T03:58:57.966Z,98301.47
2022-11-17T04:01:30.799Z,98287.41
2022-11-17T04:03:58.014Z,98280.69
2022-11-17T04:06:25.393Z,98286.06
2022-11-17T04:08:52.561Z,98292.38
2022-11-17T04:11:37.947Z,98285.22
2022-11-17T04:14:24.019Z,98287.69
2022-11-17T04:16:52.056Z,98293.06
2022-11-17T04:19:21.752Z,98290.81
2022-11-17T04:21:48.916Z,98281.31
2022-11-17T04:24:16.141Z,98273.56
2022-11-17T04:27:01.869Z,98271.94
2022-11-17T04:29:29.118Z,98270.25
2022-11-17T04:31:56.483Z,98251.50
2022-11-17T04:34:23.649Z,98269.28
2022-11-17T04:36:50.924Z,98267.78
2022-11-17T04:39:18.545Z,98262.94
2022-11-17T04:41:54.782Z,98252.88
2022-11-17T04:44:28.498Z,98261.19
2022-11-17T04:46:57.578Z,98242.31
2022-11-17T04:49:26.321Z,98246.75
2022-11-17T04:51:54.196Z,98254.06
2022-11-17T04:54:24.765Z,98264.31
2022-11-17T04:56:55.006Z,98265.28
2022-11-17T04:59:23.027Z,98253.34
2022-11-17T05:01:51.360Z,98247.69
2022-11-17T05:04:40.197Z,98246.06
2022-11-17T05:07:09.091Z,98255.13
2022-11-17T05:09:36.550Z,98240.53
2022-11-17T05:12:22.523Z,98239.56
2022-11-17T05:14:50.517Z,98243.69
2022-11-17T05:17:18.158Z,98231.56
2022-11-17T05:19:48.380Z,98231.16
2022-11-17T05:22:42.721Z,98228.16
2022-11-17T05:25:10.620Z,98226.06
2022-11-17T05:27:37.929Z,98224.28
2022-11-17T05:30:09.469Z,98229.94
2022-11-17T05:32:36.669Z,98232.56
2022-11-17T05:35:04.294Z,98231.19
2022-11-17T05:37:31.858Z,98232.56
2022-11-17T05:39:59.053Z,98231.06
2022-11-17T05:42:26.353Z,98237.38
2022-11-17T05:44:53.568Z,98241.91
2022-11-17T05:47:20.795Z,98257.88
2022-11-17T05:49:47.970Z,98245.63
2022-11-17T05:52:15.234Z,98257.47
2022-11-17T05:54:42.382Z,98262.69
2022-11-17T05:57:19.828Z,98262.81
2022-11-17T06:00:00.516Z,98274.09
2022-11-17T06:02:39.805Z,98275.06
2022-11-17T06:05:08.039Z,98268.88
2022-11-17T06:07:39.140Z,98269.72
2022-11-17T06:10:07.195Z,98279.19
2022-11-17T06:12:34.404Z,98272.31
2022-11-17T06:15:01.951Z,98271.47
2022-11-17T06:17:50.663Z,98279.91
2022-11-17T06:20:34.928Z,98273.00
2022-11-17T06:23:07.564Z,98284.28
2022-11-17T06:25:37.295Z,98274.81
2022-11-17T06:28:11.232Z,98281.81
2022-11-17T06:30:42.414Z,98282.66
2022-11-17T06:33:17.548Z,98284.97
2022-11-17T06:35:46.558Z,98291.84
2022-11-17T06:38:13.688Z,98289.94
2022-11-17T06:40:43.552Z,98292.69
2022-11-17T06:43:10.865Z,98305.75
2022-11-17T06:45:46.295Z,98296.25
2022-11-17T06:48:18.012Z,98297.91
2022-11-17T06:50:48.265Z,98295.16
2022-11-17T06:53:18.571Z,98304.09
2022-11-17T06:55:54.077Z,98293.50
2022-11-17T06:58:21.634Z,98316.75
2022-11-17T07:00:48.970Z,98313.44
2022-11-17T07:03:16.309Z,98312.91
2022-11-17T07:05:43.533Z,98322.25
2022-11-17T07:08:10.840Z,98335.31
2022-11-17T07:10:44.973Z,98325.97
2022-11-17T07:13:15.263Z,98337.22
2022-11-17T07:15:42.572Z,98318.13
2022-11-17T07:18:09.768Z,98336.41
2022-11-17T07:20:36.973Z,98332.97
2022-11-17T07:23:05.922Z,98331.59
2022-11-17T07:25:33.237Z,98337.09
2022-11-17T07:28:01.044Z,98337.38
2022-11-17T07:30:31.603Z,98332.28
2022-11-17T07:33:00.791Z,98338.72
2022-11-17T07:35:29.119Z,98332.41
2022-11-17T07:38:01.643Z,98344.88
2022-11-17T07:40:32.104Z,98341.47
2022-11-17T07:42:59.352Z,98350.25
2022-11-17T07:45:31.783Z,98361.41
2022-11-17T07:48:05.763Z,98372.25
2022-11-17T07:50:34.788Z,98376.78
2022-11-17T07:53:02.037Z,98374.41
2022-11-17T07:55:29.591Z,98383.91
2022-11-17T07:58:00.018Z,98365.91
2022-11-17T08:00:33.857Z,98387.88
2022-11-17T08:03:04.843Z,98392.28
2022-11-17T08:05:43.041Z,98393.94
2022-11-17T08:08:13.046Z,98391.00
2022-11-17T08:10:43.200Z,98382.38
2022-11-17T08:13:11.361Z,98396.50
2022-11-17T08:15:38.725Z,98401.72
2022-11-17T08:18:06.359Z,98402.69
2022-11-17T08:20:33.902Z,98400.91
2022-11-17T08:23:01.177Z,98410.28
2022-11-17T08:25:28.521Z,98414.38
2022-11-17T08:27:58.851Z,98404.91
2022-11-17T08:30:27.218Z,98415.50
2022-11-17T08:32:55.053Z,98416.31
2022-11-17T08:35:25.756Z,98418.66
2022-11-17T08:37:54.300Z,98419.75
2022-11-17T08:40:23.320Z,98416.31
2022-11-17T08:43:00.319Z,98420.59
2022-11-17T08:45:31.616Z,98424.84
2022-11-17T08:47:59.328Z,98427.44
2022-11-17T08:50:27.080Z,98422.34
2022-11-17T08:52:54.462Z,98430.19
2022-11-17T08:55:26.403Z,98430.72
2022-11-17T08:57:54.051Z,98429.50
2022-11-17T09:00:21.911Z,98434.28
2022-11-17T09:02:49.208Z,98443.34
2022-11-17T09:05:16.450Z,98443.47
2022-11-17T09:07:44.266Z,98452.25
2022-11-17T09:10:12.038Z,98452.63
2022-11-17T09:12:39.269Z,98439.84
2022-11-17T09:15:07.322Z,98438.75
2022-11-17T09:17:34.752Z,98444.09
2022-11-17T09:20:02.216Z,98447.53
2022-11-17T09:22:29.365Z,98446.72
2022-11-17T09:24:56.574Z,98447.78
2022-11-17T09:27:23.782Z,98463.47
2022-11-17T09:29:51.011Z,98466.91
2022-11-17T09:32:19.441Z,98469.41
2022-11-17T09:34:46.768Z,98467.84
2022-11-17T09:37:14.009Z,98478.31
2022-11-17T09:39:41.268Z,98472.13
2022-11-17T09:42:18.211Z,98475.56
2022-11-17T09:44:59.322Z,98491.91
2022-11-17T09:47:48.037Z,98493.84
2022-11-17T09:50:39.062Z,98490.97
2022-11-17T09:53:50.885Z,98499.75
2022-11-17T09:56:18.446Z,98509.13
2022-11-17T09:59:05.582Z,98495.81
2022-11-17T10:01:32.975Z,98502.19
2022-11-17T10:04:01.419Z,98519.34
2022-11-17T10:06:32.402Z,98504.41
2022-11-17T10:09:42.300Z,98501.16
2022-11-17T10:12:26.668Z,98513.69
2022-11-17T10:14:55.496Z,98520.50
2022-11-17T10:17:22.838Z,98507.34
2022-11-17T10:19:50.126Z,98521.84
2022-11-17T10:22:36.816Z,98534.13
2022-11-17T10:25:04.792Z,98514.03
2022-11-17T10:27:34.973Z,98514.91
2022-11-17T10:30:24.259Z,98530.06
2022-11-17T10:32:58.271Z,98525.25
2022-11-17T10:35:35.921Z,98530.53
2022-11-17T10:38:21.821Z,98522.56
2022-11-17T10:40:53.513Z,98526.16
2022-11-17T10:43:54.870Z,98523.81
2022-11-17T10:46:24.043Z,98540.75
2022-11-17T10:49:02.042Z,98541.19
2022-11-17T10:51:33.074Z,98531.13
2022-11-17T10:54:16.612Z,98540.63
2022-11-17T10:56:53.938Z,98550.00
2022-11-17T10:59:56.450Z,98550.44
2022-11-17T11:02:36.458Z,98551.25
2022-11-17T11:05:19.020Z,98557.06
2022-11-17T11:07:46.252Z,98553.59
2022-11-17T11:10:33.345Z,98549.63
2022-11-17T11:13:17.819Z,98556.88
2022-11-17T11:15:46.745Z,98566.53
2022-11-17T11:18:20.190Z,98556.16
2022-11-17T11:21:38.337Z,98566.34
2022-11-17T11:24:53.645Z,98576.28
2022-11-17T11:28:26.851Z,98581.78
2022-11-17T11:31:30.151Z,98585.06
2022-11-17T11:34:30.889Z,98580.84
2022-11-17T11:37:13.746Z,98583.72
2022-11-17T11:40:21.789Z,98575.75
2022-11-17T11:43:06.345Z,98594.88
2022-11-17T11:46:16.373Z,98592.66
2022-11-17T11:48:47.122Z,98595.00
2022-11-17T11:51:27.929Z,98586.72
2022-11-17T11:54:23.938Z,98605.88
2022-11-17T11:56:51.683Z,98591.69
2022-11-17T11:59:39.637Z,98598.56
2022-11-17T12:02:25.202Z,98599.97
2022-11-17T12:05:38.473Z,98599.69
2022-11-17T12:08:40.047Z,98599.56
2022-11-17T12:11:34.685Z,98609.91
2022-11-17T12:14:06.086Z,98609.91
2022-11-17T12:16:40.146Z,98611.69
2022-11-17T12:19:44.970Z,98628.91
2022-11-17T12:22:33.590Z,98622.84
2022-11-17T12:25:30.342Z,98610.19
2022-11-17T12:27:57.816Z,98632.78
2022-11-17T12:30:31.021Z,98636.78
2022-11-17T12:33:06.778Z,98624.78
2022-11-17T12:35:39.939Z,98631.06
2022-11-17T12:38:19.946Z,98616.16
2022-11-17T12:40:49.731Z,98636.44
2022-11-17T12:43:16.807Z,98652.28
2022-11-17T12:46:22.821Z,98649.22
2022-11-17T12:49:10.184Z,98637.88
2022-11-17T12:51:55.479Z,98640.22
2022-11-17T12:54:54.084Z,98634.53
2022-11-17T12:57:32.169Z,98646.38
2022-11-17T13:00:25.761Z,98654.22
2022-11-17T13:03:25.561Z,98647.72
2022-11-17T13:09:12.763Z,98653.09
2022-11-17T13:11:40.476Z,98649.06
2022-11-17T13:14:07.664Z,98662.75
2022-11-17T13:16:42.295Z,98656.53
2022-11-17T13:19:40.412Z,98644.28
2022-11-17T13:22:19.139Z,98660.97
2022-11-17T13:24:53.597Z,98641.03
2022-11-17T13:27:31.955Z,98661.31
2022-11-17T13:30:28.399Z,98667.53
2022-11-17T13:33:01.441Z,98656.97
2022-11-17T13:35:36.157Z,98672.13
2022-11-17T13:38:21.000Z,98673.53
2022-11-17T13:40:53.599Z,98676.44
2022-11-17T13:43:25.157Z,98674.22
2022-11-17T13:45:55.283Z,98677.38
2022-11-17T13:48:43.116Z,98671.72
2022-11-17T13:51:20.847Z,98682.22
2022-11-17T13:53:57.749Z,98685.41
2022-11-17T13:56:40.955Z,98681.81
2022-11-17T13:59:35.347Z,98666.50
2022-11-17T14:02:20.768Z,98689.66
2022-11-17T14:05:14.957Z,98689.09
2022-11-17T14:07:44.299Z,98686.38
2022-11-17T14:10:20.515Z,98702.91
2022-11-17T14:13:01.373Z,98709.69
2022-11-17T14:15:39.749Z,98697.66
2022-11-17T14:18:37.528Z,98703.19
2022-11-17T14:21:17.231Z,98680.72
2022-11-17T14:23:45.498Z,98721.38
2022-11-17T14:26:24.607Z,98713.25
2022-11-17T14:28:52.908Z,98708.97
2022-11-17T14:31:20.371Z,98718.09
2022-11-17T14:33:47.740Z,98713.13
2022-11-17T14:36:18.662Z,98719.19
2022-11-17T14:38:47.394Z,98719.31
2022-11-17T14:41:19.346Z,98725.53
2022-11-17T14:43:48.012Z,98724.97
2022-11-17T14:46:26.310Z,98727.47
2022-11-17T14:48:55.455Z,98730.63
2022-11-17T14:51:23.160Z,98739.16
2022-11-17T14:53:50.516Z,98736.41
2022-11-17T14:56:21.870Z,98740.00
2022-11-17T14:58:59.370Z,98739.03
2022-11-17T15:01:34.661Z,98752.25
2022-11-17T15:04:27.191Z,98748.69
2022-11-17T15:06:52.395Z,98761.25
2022-11-17T15:09:20.638Z,98765.75
2022-11-17T15:11:48.356Z,98761.50
2022-11-17T15:14:16.150Z,98772.81
2022-11-17T15:16:43.513Z,98776.38
2022-11-17T15:19:12.357Z,98777.22
2022-11-17T15:21:40.050Z,98779.00
2022-11-17T15:24:09.321Z,98774.59
2022-11-17T15:26:39.780Z,98772.13
2022-11-17T15:29:07.750Z,98785.47
2022-11-17T15:31:35.056Z,98788.91
2022-11-17T15:34:02.423Z,98780.38
2022-11-17T15:36:31.975Z,98790.28
2022-11-17T15:38:59.185Z,98782.56
2022-11-17T15:41:31.442Z,98790.53
2022-11-17T15:44:01.030Z,98783.81
2022-11-17T15:46:28.388Z,98791.66
2022-11-17T15:48:56.585Z,98808.44
2022-11-17T15:51:28.059Z,98793.28
2022-11-17T15:54:00.486Z,98803.47
2022-11-17T15:56:34.495Z,98803.75
2022-11-17T15:59:05.164Z,98801.25
2022-11-17T16:01:35.293Z,98805.81
2022-11-17T16:04:18.924Z,98808.44
2022-11-17T16:06:47.558Z,98818.91
2022-11-17T16:09:15.879Z,98817.09
2022-11-17T16:11:43.971Z,98816.69
2022-11-17T16:14:11.774Z,98820.50
2022-11-17T16:16:39.887Z,98831.09
2022-11-17T16:19:08.019Z,98830.41
2022-11-17T16:21:35.238Z,98832.09
2022-11-17T16:24:03.269Z,98835.78
2022-11-17T16:26:31.762Z,98834.13
2022-11-17T16:29:04.203Z,98837.69
2022-11-17T16:31:37.473Z,98849.94
2022-11-17T16:34:15.751Z,98829.84
2022-11-17T16:36:45.155Z,98833.53
2022-11-17T16:39:17.225Z,98847.06
2022-11-17T16:41:46.195Z,98844.31
2022-11-17T16:44:17.652Z,98846.13
2022-11-17T16:46:49.688Z,98838.41
2022-11-17T16:49:19.504Z,98844.69
2022-11-17T16:51:50.669Z,98843.75
2022-11-17T16:54:18.678Z,98850.91
2022-11-17T16:56:46.412Z,98853.28
2022-11-17T16:59:14.540Z,98859.56
2022-11-17T17:01:42.078Z,98860.66
2022-11-17T17:04:12.337Z,98854.59
2022-11-17T17:06:44.019Z,98854.03
2022-11-17T17:09:14.819Z,98860.47
2022-11-17T17:11:44.521Z,98861.00
2022-11-17T17:14:15.260Z,98866.47
2022-11-17T17:16:47.063Z,98872.91
2022-11-17T17:19:16.551Z,98877.72
2022-11-17T17:21:45.463Z,98877.16
2022-11-17T17:24:12.962Z,98883.59
2022-11-17T17:26:40.739Z,98881.22
2022-11-17T17:29:08.523Z,98883.38
2022-11-17T17:31:41.101Z,98886.25
2022-11-17T17:34:12.490Z,98887.47
2022-11-17T17:36:40.040Z,98896.50
2022-11-17T17:39:08.019Z,98901.97
2022-11-17T17:41:40.941Z,98901.41
2022-11-17T17:44:13.188Z,98912.38
2022-11-17T17:46:40.384Z,98914.41
2022-11-17T17:49:07.562Z,98911.19
2022-11-17T17:51:42.195Z,98916.41
2022-11-17T17:54:17.198Z,98927.00
2022-11-17T17:56:45.531Z,98923.09
2022-11-17T17:59:13.998Z,98924.19
2022-11-17T18:01:42.289Z,98921.09
2022-11-17T18:04:15.310Z,98926.69
2022-11-17T18:06:47.886Z,98937.41
2022-11-17T18:09:19.505Z,98934.78
2022-11-17T18:11:51.812Z,98935.84
2022-11-17T18:14:24.662Z,98935.16
2022-11-17T18:16:52.868Z,98939.41
2022-11-17T18:19:20.883Z,98943.09
2022-11-17T18:21:48.192Z,98946.78
2022-11-17T18:24:15.395Z,98948.44
2022-11-17T18:26:42.759Z,98950.38
2022-11-17T18:29:18.418Z,98955.84
2022-11-17T18:31:47.447Z,98951.78
2022-11-17T18:34:24.042Z,98955.47
2022-11-17T18:36:55.725Z,98967.00
2022-11-17T18:39:23.493Z,98968.06
2022-11-17T18:41:50.806Z,98963.06
2022-11-17T18:44:19.652Z,98972.69
2022-11-17T18:46:47.380Z,98971.16
2022-11-17T18:49:15.023Z,98975.66
2022-11-17T18:51:42.675Z,98981.94
2022-11-17T18:54:12.726Z,98980.41
2022-11-17T18:56:40.170Z,98983.13
2022-11-17T18:59:11.662Z,98985.03
2022-11-17T19:01:42.933Z,98985.84
2022-11-17T19:04:13.742Z,98980.88
2022-11-17T19:06:41.680Z,98990.13
2022-11-17T19:09:10.096Z,98997.28
2022-11-17T19:11:37.522Z,98992.88
2022-11-17T19:14:07.961Z,98997.50
2022-11-17T19:16:44.016Z,99000.94
2022-11-17T19:19:14.067Z,98995.84
2022-11-17T19:21:42.511Z,98996.78
2022-11-17T19:24:09.888Z,99007.44
2022-11-17T19:26:37.570Z,99004.00
2022-11-17T19:29:15.538Z,99011.03
2022-11-17T19:31:44.688Z,99012.66
2022-11-17T19:34:12.353Z,99015.53
2022-11-17T19:36:39.858Z,99017.41
2022-11-17T19:39:07.384Z,99024.56
2022-11-17T19:41:39.849Z,99027.16
2022-11-17T19:44:09.273Z,99042.09
2022-11-17T19:46:37.145Z,99032.72
2022-11-17T19:49:07.589Z,99037.94
2022-11-17T19:51:37.072Z,99038.88
2022-11-17T19:54:09.120Z,99046.94
2022-11-17T19:56:38.320Z,99050.50
2022-11-17T19:59:09.659Z,99062.72
2022-11-17T20:01:39.764Z,99066.28
2022-11-17T20:04:07.391Z,99069.84
2022-11-17T20:06:39.006Z,99067.25
2022-11-17T20:09:09.650Z,99072.59
2022-11-17T20:11:37.783Z,99066.63
2022-11-17T20:14:05.157Z,99083.97
2022-11-17T20:16:32.642Z,99080.53
2022-11-17T20:19:02.144Z,99085.84
2022-11-17T20:21:31.466Z,99093.06
2022-11-17T20:24:00.327Z,99093.28
2022-11-17T20:26:32.815Z,99098.84
2022-11-17T20:29:01.635Z,99083.59
2022-11-17T20:31:34.177Z,99101.16
2022-11-17T20:34:05.234Z,99103.06
2022-11-17T20:36:35.421Z,99114.53
2022-11-17T20:39:07.079Z,99107.75
2022-11-17T20:41:34.759Z,99120.09
2022-11-17T20:44:03.346Z,99113.41
2022-11-17T20:46:30.819Z,99128.34
2022-11-17T20:48:58.131Z,99137.13
2022-11-17T20:51:26.306Z,99131.28
2022-11-17T20:53:54.066Z,99134.00
2022-11-17T20:56:21.321Z,99135.06
2022-11-17T20:58:49.008Z,99133.63
2022-11-17T21:01:21.592Z,99140.59
2022-11-17T21:03:49.559Z,99143.41
2022-11-17T21:06:18.430Z,99141.25
2022-11-17T21:08:46.720Z,99152.53
2022-11-17T21:11:56.951Z,99146.56
2022-11-17T21:14:26.939Z,99151.06
2022-11-17T21:16:57.659Z,99159.00
2022-11-17T21:19:25.018Z,99158.38
2022-11-17T21:21:55.961Z,99165.50
2022-11-17T21:24:23.992Z,99164.84
2022-11-17T21:26:53.388Z,99166.63
2022-11-17T21:29:21.337Z,99164.25
2022-11-17T21:31:48.866Z,99166.97
2022-11-17T21:34:17.568Z,99164.47
2022-11-17T21:36:44.880Z,99169.06
2022-11-17T21:39:18.338Z,99168.19
2022-11-17T21:41:46.115Z,99165.69
2022-11-17T21:44:14.219Z,99173.63
2022-11-17T21:46:41.549Z,99176.22
2022-11-17T21:49:08.811Z,99173.72
2022-11-17T21:51:38.673Z,99180.00
2022-11-17T21:54:09.939Z,99175.72
2022-11-17T21:56:37.546Z,99185.34
2022-11-17T21:59:11.826Z,99180.31
2022-11-17T22:01:40.103Z,99190.75
2022-11-17T22:04:07.319Z,99192.50
2022-11-17T22:06:34.832Z,99186.56
2022-11-17T22:09:02.054Z,99197.81
2022-11-17T22:11:38.505Z,99197.00
2022-11-17T22:14:11.762Z,99207.53
2022-11-17T22:16:55.269Z,99194.59
2022-11-17T22:19:27.368Z,99204.19
2022-11-17T22:21:55.315Z,99208.47
2022-11-17T22:24:22.904Z,99205.13
2022-11-17T22:26:51.595Z,99217.34
2022-11-17T22:29:22.355Z,99216.38
2022-11-17T22:31:50.539Z,99217.34
2022-11-17T22:34:18.758Z,99211.28
2022-11-17T22:36:46.341Z,99220.03
2022-11-17T22:39:13.834Z,99225.38
2022-11-17T22:41:41.984Z,99225.38
2022-11-17T22:44:14.311Z,99230.69
2022-11-17T22:46:43.212Z,99244.53
2022-11-17T22:49:11.004Z,99235.88
2022-11-17T22:51:57.058Z,99243.59
2022-11-17T22:54:24.335Z,99247.13
2022-11-17T22:56:52.014Z,99251.63
2022-11-17T22:59:20.824Z,99258.50
2022-11-17T23:01:47.986Z,99262.88
2022-11-17T23:04:16.482Z,99258.59
2022-11-17T23:06:46.779Z,99262.16
2022-11-17T23:09:14.308Z,99266.50
2022-11-17T23:11:43.083Z,99266.41
2022-11-17T23:14:14.331Z,99268.19
2022-11-17T23:16:42.184Z,99259.75
2022-11-17T23:19:13.943Z,99276.22
2022-11-17T23:21:41.956Z,99274.63
2022-11-17T23:24:11.004Z,99277.34
2022-11-17T23:26:40.178Z,99281.81
2022-11-17T23:29:09.196Z,99292.34
2022-11-17T23:31:36.515Z,99281.09
2022-11-17T23:34:03.792Z,99293.06
2022-11-17T23:36:31.095Z,99295.69
2022-11-17T23:38:58.299Z,99299.34
2022-11-17T23:41:25.551Z,99296.84
2022-11-17T23:43:54.796Z,99296.09
2022-11-17T23:46:25.972Z,99309.22
2022-11-17T23:48:56.165Z,99296.47
2022-11-17T23:51:28.710Z,99300.03
2022-11-17T23:54:00.278Z,99299.28
2022-11-17T23:56:27.718Z,99299.28
2022-11-17T23:58:54.966Z,99303.78
